Time;durP1;ratioP1;P1;durP2;ratioP2;P2;SDS_P1;SDS_P2;PMS_P1;PMS_P2;Temp;Humidity;BMP_temperature;BMP_pressure;BME280_temperature;BME280_humidity;BME280_pressure;Samples;Min_cycle;Max_cycle;Signal;HPM_P1;HPM_P2
2021/12/15 00:02:18;;;;;;;9.03;6.37;;;;;;;;;;5116852;28;20208;-82
2021/12/15 00:04:47;;;;;;;10.10;6.53;;;;;;;;;;5116464;28;20228;-83
2021/12/15 00:07:15;;;;;;;15.63;5.77;;;;;;;;;;5116806;28;20274;-83
2021/12/15 00:09:46;;;;;;;9.57;5.90;;;;;;;;;;5116731;28;20204;-83
2021/12/15 00:12:14;;;;;;;13.40;9.60;;;;;;;;;;5116539;28;20228;-83
2021/12/15 00:14:43;;;;;;;23.50;6.53;;;;;;;;;;5116667;28;20204;-83
2021/12/15 00:17:14;;;;;;;4.67;4.17;;;;;;;;;;5116800;28;20207;-83
2021/12/15 00:19:45;;;;;;;14.60;8.07;;;;;;;;;;5116158;28;20307;-83
2021/12/15 00:22:17;;;;;;;8.37;5.40;;;;;;;;;;5116835;28;20270;-83
2021/12/15 00:24:45;;;;;;;15.77;6.70;;;;;;;;;;5116263;28;20208;-83
2021/12/15 00:27:14;;;;;;;7.73;4.03;;;;;;;;;;5116074;28;20228;-83
2021/12/15 00:29:43;;;;;;;15.53;7.80;;;;;;;;;;5115909;28;20204;-83
2021/12/15 00:32:11;;;;;;;6.90;5.73;;;;;;;;;;5115729;28;20261;-83
2021/12/15 00:34:41;;;;;;;16.87;8.63;;;;;;;;;;5115817;28;20253;-83
2021/12/15 00:37:11;;;;;;;16.00;7.40;;;;;;;;;;5115913;28;20272;-83
2021/12/15 00:39:39;;;;;;;11.53;6.33;;;;;;;;;;5116104;28;20220;-83
2021/12/15 00:42:08;;;;;;;7.87;5.70;;;;;;;;;;5115673;28;20280;-83
2021/12/15 00:44:36;;;;;;;15.43;3.93;;;;;;;;;;5115939;27;20197;-83
2021/12/15 00:47:05;;;;;;;6.47;3.53;;;;;;;;;;5115837;28;20225;-83
2021/12/15 00:49:33;;;;;;;14.53;8.03;;;;;;;;;;5116028;28;20283;-83
2021/12/15 00:52:02;;;;;;;8.70;5.37;;;;;;;;;;5115442;28;20281;-83
2021/12/15 00:54:33;;;;;;;14.77;7.67;;;;;;;;;;5115466;28;20200;-83
2021/12/15 00:57:02;;;;;;;13.90;8.77;;;;;;;;;;5115050;28;20239;-83
2021/12/15 00:59:31;;;;;;;13.73;6.97;;;;;;;;;;5115291;28;20281;-83
2021/12/15 01:01:59;;;;;;;8.77;5.53;;;;;;;;;;5115739;28;20283;-83
2021/12/15 01:04:29;;;;;;;12.07;6.13;;;;;;;;;;5115130;28;20223;-84
2021/12/15 01:06:59;;;;;;;8.77;4.87;;;;;;;;;;5115642;28;20223;-83
2021/12/15 01:09:31;;;;;;;14.03;8.40;;;;;;;;;;5115730;28;20189;-83
2021/12/15 01:12:15;;;;;;;10.07;6.70;;;;;;;;;;5115360;28;20227;-83
2021/12/15 01:20:21;;;;;;;12.73;5.90;;;;;;;;;;5114832;28;20298;-83
2021/12/15 01:22:51;;;;;;;11.13;6.77;;;;;;;;;;5114939;28;20228;-84
2021/12/15 01:25:21;;;;;;;9.57;4.73;;;;;;;;;;5115123;28;20261;-83
2021/12/15 01:27:51;;;;;;;10.53;7.67;;;;;;;;;;5115092;28;20220;-83
2021/12/15 01:30:21;;;;;;;6.57;4.47;;;;;;;;;;5115160;28;20208;-83
2021/12/15 01:32:50;;;;;;;12.60;8.87;;;;;;;;;;5114550;28;20260;-83
2021/12/15 01:35:22;;;;;;;13.23;7.17;;;;;;;;;;5114797;28;20252;-83
2021/12/15 01:37:51;;;;;;;14.27;6.40;;;;;;;;;;5114558;28;20207;-83
2021/12/15 01:40:29;;;;;;;14.57;7.80;;;;;;;;;;5114498;28;20311;-83
2021/12/15 01:42:58;;;;;;;11.00;8.63;;;;;;;;;;5114787;28;20221;-83
2021/12/15 01:48:14;;;;;;;7.57;4.53;;;;;;;;;;5114381;28;20205;-83
2021/12/15 01:50:43;;;;;;;4.63;4.00;;;;;;;;;;5114864;28;20276;-83
2021/12/15 01:53:11;;;;;;;8.70;6.17;;;;;;;;;;5114020;28;20252;-83
2021/12/15 01:55:40;;;;;;;17.60;8.77;;;;;;;;;;5114384;28;20204;-83
2021/12/15 01:58:10;;;;;;;16.33;7.67;;;;;;;;;;5114640;28;20200;-83
2021/12/15 02:00:40;;;;;;;9.17;5.70;;;;;;;;;;5114304;28;20315;-83
2021/12/15 02:03:09;;;;;;;12.63;6.43;;;;;;;;;;5114683;28;20228;-83
2021/12/15 02:05:38;;;;;;;9.03;6.40;;;;;;;;;;5114504;28;20212;-83
2021/12/15 02:08:07;;;;;;;16.97;10.13;;;;;;;;;;5114310;28;20272;-83
2021/12/15 02:10:38;;;;;;;25.43;10.20;;;;;;;;;;5114325;28;20260;-83
2021/12/15 02:13:08;;;;;;;19.20;10.07;;;;;;;;;;5114544;28;20279;-83
2021/12/15 02:15:39;;;;;;;10.20;6.07;;;;;;;;;;5114290;28;20220;-83
2021/12/15 02:18:09;;;;;;;8.17;6.57;;;;;;;;;;5114012;28;20291;-83
2021/12/15 02:20:40;;;;;;;5.10;4.20;;;;;;;;;;5113999;28;20269;-83
2021/12/15 02:23:10;;;;;;;15.00;6.83;;;;;;;;;;5114564;28;20201;-83
2021/12/15 02:25:39;;;;;;;11.73;6.63;;;;;;;;;;5114122;28;20230;-83
2021/12/15 02:28:08;;;;;;;21.87;6.93;;;;;;;;;;5114272;28;20215;-83
2021/12/15 02:30:49;;;;;;;1.83;1.73;;;;;;;;;;5114290;28;20218;-83
2021/12/15 02:39:09;;;;;;;7.43;3.33;;;;;;;;;;5107349;28;20265;-83
2021/12/15 02:41:38;;;;;;;23.47;10.50;;;;;;;;;;5113897;28;20291;-83
2021/12/15 02:44:07;;;;;;;5.80;4.33;;;;;;;;;;5114194;28;20208;-83
2021/12/15 02:46:38;;;;;;;14.30;6.57;;;;;;;;;;5114134;28;20308;-83
2021/12/15 02:49:07;;;;;;;8.73;4.73;;;;;;;;;;5113926;28;20189;-83
2021/12/15 02:51:38;;;;;;;5.03;4.67;;;;;;;;;;5113911;28;20260;-83
2021/12/15 02:54:07;;;;;;;9.97;5.67;;;;;;;;;;5114413;28;20211;-83
2021/12/15 02:56:36;;;;;;;10.30;4.77;;;;;;;;;;5113939;28;20264;-83
2021/12/15 02:59:07;;;;;;;11.13;7.13;;;;;;;;;;5114255;28;20288;-83
2021/12/15 03:01:51;;;;;;;14.67;7.77;;;;;;;;;;5114204;28;20252;-84
2021/12/15 03:04:30;;;;;;;7.40;5.10;;;;;;;;;;5114138;28;20232;-83
2021/12/15 03:07:06;;;;;;;19.30;6.83;;;;;;;;;;5117463;28;20210;-83
2021/12/15 03:18:01;;;;;;;15.57;8.27;;;;;;;;;;5114862;28;20202;-83
2021/12/15 03:20:30;;;;;;;4.87;4.37;;;;;;;;;;5117151;28;20227;-83
2021/12/15 03:23:00;;;;;;;5.70;2.90;;;;;;;;;;5117477;28;20222;-83
2021/12/15 03:25:31;;;;;;;7.00;4.93;;;;;;;;;;5117153;28;20232;-83
2021/12/15 03:33:57;;;;;;;20.03;6.90;;;;;;;;;;5054458;28;20213;-84
2021/12/15 03:36:39;;;;;;;6.77;3.47;;;;;;;;;;5108834;27;20208;-83
2021/12/15 03:39:11;;;;;;;8.83;5.03;;;;;;;;;;5116947;28;20269;-83
2021/12/15 03:41:40;;;;;;;6.87;4.23;;;;;;;;;;5117020;28;20209;-83
2021/12/15 03:44:09;;;;;;;22.73;12.33;;;;;;;;;;5117263;28;20206;-83
2021/12/15 03:46:37;;;;;;;6.23;4.50;;;;;;;;;;5117267;28;20228;-83
2021/12/15 03:49:06;;;;;;;8.23;5.90;;;;;;;;;;5117238;28;20212;-83
2021/12/15 03:51:35;;;;;;;11.83;8.10;;;;;;;;;;5116806;28;20284;-83
2021/12/15 03:54:04;;;;;;;6.23;4.63;;;;;;;;;;5116314;28;20247;-83
2021/12/15 03:56:35;;;;;;;13.20;8.87;;;;;;;;;;5116889;28;20236;-83
2021/12/15 03:59:05;;;;;;;7.30;5.53;;;;;;;;;;5117024;28;20193;-83
2021/12/15 04:01:33;;;;;;;15.33;7.87;;;;;;;;;;5116694;28;20231;-83
2021/12/15 04:04:02;;;;;;;9.37;5.77;;;;;;;;;;5116529;28;20303;-83
2021/12/15 04:06:32;;;;;;;7.23;5.90;;;;;;;;;;5117080;28;20253;-83
2021/12/15 04:09:01;;;;;;;18.73;7.83;;;;;;;;;;5116838;28;20221;-84
2021/12/15 04:11:33;;;;;;;6.53;5.07;;;;;;;;;;5116895;28;20279;-83
2021/12/15 04:14:03;;;;;;;11.10;7.27;;;;;;;;;;5116178;28;20231;-83
2021/12/15 04:16:46;;;;;;;13.83;4.80;;;;;;;;;;5116263;28;20188;-83
2021/12/15 04:19:16;;;;;;;8.77;4.43;;;;;;;;;;5116482;28;20284;-83
2021/12/15 04:21:45;;;;;;;1.47;1.47;;;;;;;;;;5116012;28;20311;-83
2021/12/15 04:24:15;;;;;;;13.33;5.83;;;;;;;;;;5115887;28;20232;-83
2021/12/15 04:26:43;;;;;;;12.73;6.93;;;;;;;;;;5116148;28;20227;-83
2021/12/15 04:29:13;;;;;;;9.53;4.93;;;;;;;;;;5115716;28;20264;-83
2021/12/15 04:31:43;;;;;;;6.30;2.80;;;;;;;;;;5116128;28;20218;-83
2021/12/15 04:34:12;;;;;;;12.87;6.03;;;;;;;;;;5115889;28;20291;-83
2021/12/15 04:36:41;;;;;;;23.80;10.40;;;;;;;;;;5116323;28;20593;-83
2021/12/15 04:39:12;;;;;;;10.90;4.67;;;;;;;;;;5116101;28;20227;-83
2021/12/15 04:41:46;;;;;;;3.20;3.00;;;;;;;;;;5115944;28;20254;-83
2021/12/15 04:44:17;;;;;;;4.03;3.63;;;;;;;;;;5115604;28;20257;-83
2021/12/15 04:46:50;;;;;;;9.93;6.37;;;;;;;;;;5116097;28;20185;-83
2021/12/15 04:49:19;;;;;;;6.87;5.43;;;;;;;;;;5115703;28;20184;-83
2021/12/15 04:51:48;;;;;;;3.10;2.77;;;;;;;;;;5115331;28;20258;-83
2021/12/15 04:54:17;;;;;;;13.07;6.60;;;;;;;;;;5116022;28;20197;-84
2021/12/15 04:56:45;;;;;;;7.30;3.50;;;;;;;;;;5115787;28;20204;-83
2021/12/15 04:59:14;;;;;;;23.87;8.73;;;;;;;;;;5115411;28;20236;-83
2021/12/15 05:01:46;;;;;;;7.20;6.40;;;;;;;;;;5115189;28;20220;-83
2021/12/15 05:04:15;;;;;;;13.17;7.27;;;;;;;;;;5115171;28;20234;-83
2021/12/15 05:06:44;;;;;;;10.70;4.87;;;;;;;;;;5115496;28;20192;-83
2021/12/15 05:09:14;;;;;;;2.67;2.27;;;;;;;;;;5114987;28;20230;-83
2021/12/15 05:11:42;;;;;;;6.20;3.43;;;;;;;;;;5115229;28;20223;-83
2021/12/15 05:14:11;;;;;;;16.33;10.07;;;;;;;;;;5114863;28;20200;-83
2021/12/15 05:16:39;;;;;;;9.27;3.43;;;;;;;;;;5115097;28;20291;-83
2021/12/15 05:19:09;;;;;;;11.07;5.90;;;;;;;;;;5115239;28;20200;-83
2021/12/15 05:21:37;;;;;;;5.37;3.47;;;;;;;;;;5114910;28;20220;-83
2021/12/15 05:24:14;;;;;;;3.07;2.87;;;;;;;;;;5115017;28;20208;-83
2021/12/15 05:26:42;;;;;;;10.17;6.13;;;;;;;;;;5115022;28;20347;-83
2021/12/15 05:29:11;;;;;;;13.13;5.97;;;;;;;;;;5114083;28;20311;-83
2021/12/15 05:31:39;;;;;;;1.43;1.33;;;;;;;;;;5115132;28;20218;-84
2021/12/15 05:34:09;;;;;;;11.73;4.60;;;;;;;;;;5110220;28;20417;-83
2021/12/15 05:36:38;;;;;;;5.77;3.70;;;;;;;;;;5106091;28;20247;-83
2021/12/15 05:39:07;;;;;;;13.13;4.17;;;;;;;;;;5093297;28;20205;-83
2021/12/15 05:41:36;;;;;;;11.90;5.13;;;;;;;;;;5093845;28;20270;-83
2021/12/15 05:44:05;;;;;;;15.20;6.03;;;;;;;;;;5093928;28;20254;-83
2021/12/15 05:46:35;;;;;;;15.47;8.47;;;;;;;;;;5093931;28;20308;-83
2021/12/15 05:49:05;;;;;;;6.17;2.97;;;;;;;;;;5093813;28;20211;-83
2021/12/15 05:51:36;;;;;;;2.63;2.30;;;;;;;;;;5094356;28;20248;-83
2021/12/15 05:54:06;;;;;;;11.73;5.20;;;;;;;;;;5093625;28;20185;-83
2021/12/15 05:56:34;;;;;;;10.33;3.90;;;;;;;;;;5094215;28;20221;-83
2021/12/15 05:59:04;;;;;;;5.50;3.70;;;;;;;;;;5105697;28;20233;-84
2021/12/15 06:01:33;;;;;;;10.33;7.87;;;;;;;;;;5114210;28;20224;-83
2021/12/15 06:04:02;;;;;;;1.80;1.33;;;;;;;;;;5113544;28;20220;-83
2021/12/15 06:06:30;;;;;;;2.37;2.17;;;;;;;;;;5114200;28;20372;-83
2021/12/15 06:09:00;;;;;;;6.77;2.60;;;;;;;;;;5114190;28;20325;-83
2021/12/15 06:11:28;;;;;;;8.80;4.10;;;;;;;;;;5114264;28;20211;-83
2021/12/15 06:13:57;;;;;;;8.50;4.63;;;;;;;;;;5100183;28;20296;-83
2021/12/15 06:16:25;;;;;;;15.57;7.33;;;;;;;;;;5093944;28;20204;-84
2021/12/15 06:18:54;;;;;;;4.87;2.87;;;;;;;;;;5093961;28;20217;-83
2021/12/15 06:21:23;;;;;;;9.53;4.17;;;;;;;;;;5093955;28;20316;-83
2021/12/15 06:23:52;;;;;;;3.03;2.17;;;;;;;;;;5093656;28;20220;-83
2021/12/15 06:26:22;;;;;;;5.60;3.50;;;;;;;;;;5099041;28;20232;-84
2021/12/15 06:28:51;;;;;;;6.70;3.30;;;;;;;;;;5114202;28;20196;-83
2021/12/15 06:31:20;;;;;;;6.20;3.80;;;;;;;;;;5114214;28;20203;-84
2021/12/15 06:33:49;;;;;;;7.47;4.10;;;;;;;;;;5114149;28;20353;-84
2021/12/15 06:36:20;;;;;;;8.63;5.83;;;;;;;;;;5114306;28;20212;-84
2021/12/15 06:38:50;;;;;;;6.40;3.33;;;;;;;;;;5113937;28;20267;-83
2021/12/15 06:41:19;;;;;;;7.23;4.83;;;;;;;;;;5117306;28;20207;-83
2021/12/15 06:43:54;;;;;;;11.87;6.30;;;;;;;;;;5118002;28;20204;-83
2021/12/15 07:00:20;;;;;;;6.23;3.77;;;;;;;;;;5117340;28;20200;-83
2021/12/15 07:02:49;;;;;;;5.13;3.03;;;;;;;;;;5117834;28;20234;-83
2021/12/15 07:05:18;;;;;;;12.13;6.43;;;;;;;;;;5117712;27;20205;-83
2021/12/15 07:07:47;;;;;;;3.13;2.93;;;;;;;;;;5117742;28;20211;-83
2021/12/15 07:10:17;;;;;;;4.23;3.70;;;;;;;;;;5117434;28;20224;-83
2021/12/15 07:12:46;;;;;;;9.47;5.00;;;;;;;;;;5117821;28;20205;-83
2021/12/15 07:15:14;;;;;;;16.50;8.33;;;;;;;;;;5117322;28;20200;-83
2021/12/15 07:17:46;;;;;;;6.37;3.83;;;;;;;;;;5117660;28;20246;-83
2021/12/15 07:20:49;;;;;;;11.63;4.37;;;;;;;;;;5117256;28;20287;-83
2021/12/15 07:23:20;;;;;;;10.00;4.40;;;;;;;;;;5117547;28;20240;-83
2021/12/15 07:25:49;;;;;;;11.77;5.90;;;;;;;;;;5117386;28;20207;-83
2021/12/15 07:28:18;;;;;;;5.07;3.80;;;;;;;;;;5117637;28;20232;-83
2021/12/15 07:30:49;;;;;;;26.50;8.37;;;;;;;;;;5117032;28;20204;-83
2021/12/15 07:33:24;;;;;;;5.07;4.47;;;;;;;;;;5117235;28;20185;-83
2021/12/15 07:35:53;;;;;;;22.20;12.73;;;;;;;;;;5117536;28;20238;-83
2021/12/15 07:38:21;;;;;;;20.57;11.10;;;;;;;;;;5117134;28;20208;-82
2021/12/15 07:40:50;;;;;;;7.97;6.03;;;;;;;;;;5116968;28;20201;-83
2021/12/15 07:43:31;;;;;;;5.10;3.67;;;;;;;;;;5116584;28;20299;-83
2021/12/15 07:46:00;;;;;;;12.10;4.87;;;;;;;;;;5117038;28;20236;-83
2021/12/15 07:48:34;;;;;;;11.10;6.20;;;;;;;;;;5117050;28;20227;-83
2021/12/15 07:51:05;;;;;;;10.90;5.60;;;;;;;;;;5116828;28;20275;-83
2021/12/15 07:53:33;;;;;;;10.63;3.90;;;;;;;;;;5115568;28;20296;-83
2021/12/15 07:56:02;;;;;;;3.60;3.23;;;;;;;;;;5116713;28;20221;-82
2021/12/15 07:58:30;;;;;;;6.13;2.93;;;;;;;;;;5117019;28;20209;-83
2021/12/15 08:01:01;;;;;;;11.40;5.67;;;;;;;;;;5116669;28;20208;-83
2021/12/15 08:03:33;;;;;;;6.43;4.07;;;;;;;;;;5115947;28;20227;-83
2021/12/15 08:06:02;;;;;;;15.57;5.80;;;;;;;;;;5117027;28;20204;-82
2021/12/15 08:08:31;;;;;;;2.30;2.10;;;;;;;;;;5116555;28;20207;-83
2021/12/15 08:11:02;;;;;;;12.27;6.20;;;;;;;;;;5116260;28;20210;-83
2021/12/15 08:13:34;;;;;;;10.97;5.30;;;;;;;;;;5116590;28;20207;-83
2021/12/15 08:16:03;;;;;;;11.33;4.97;;;;;;;;;;5116137;28;20226;-83
2021/12/15 08:18:33;;;;;;;2.00;1.47;;;;;;;;;;5116495;28;20204;-83
2021/12/15 08:21:04;;;;;;;4.47;4.00;;;;;;;;;;5116488;28;20231;-83
2021/12/15 08:23:32;;;;;;;3.40;2.07;;;;;;;;;;5115998;28;20263;-83
2021/12/15 08:26:01;;;;;;;15.43;5.63;;;;;;;;;;5116274;27;20293;-83
2021/12/15 08:28:29;;;;;;;11.10;5.80;;;;;;;;;;5109530;28;20196;-83
2021/12/15 08:30:59;;;;;;;14.60;6.60;;;;;;;;;;5104098;28;20234;-83
2021/12/15 08:33:28;;;;;;;19.70;6.37;;;;;;;;;;5108356;28;20238;-83
2021/12/15 08:36:00;;;;;;;11.70;4.93;;;;;;;;;;5108602;28;20239;-83
2021/12/15 08:38:32;;;;;;;2.80;2.47;;;;;;;;;;5098649;28;20201;-81
2021/12/15 08:41:01;;;;;;;7.07;4.27;;;;;;;;;;5101947;28;20277;-83
2021/12/15 08:43:30;;;;;;;5.87;3.77;;;;;;;;;;5106722;28;20220;-85
2021/12/15 08:45:59;;;;;;;1.20;0.93;;;;;;;;;;5106725;28;20502;-81
2021/12/15 08:48:29;;;;;;;8.77;4.17;;;;;;;;;;5097707;28;20269;-82
2021/12/15 08:51:03;;;;;;;1.43;1.30;;;;;;;;;;5099896;28;20301;-82
2021/12/15 08:53:32;;;;;;;10.40;4.03;;;;;;;;;;5098921;28;20293;-82
2021/12/15 08:56:01;;;;;;;1.57;1.47;;;;;;;;;;5109746;28;20204;-82
2021/12/15 08:58:29;;;;;;;6.80;3.70;;;;;;;;;;5115215;28;20208;-82
2021/12/15 09:00:59;;;;;;;7.03;2.73;;;;;;;;;;5114302;28;20195;-82
2021/12/15 09:03:28;;;;;;;26.47;3.37;;;;;;;;;;5106722;28;20238;-82
2021/12/15 09:05:58;;;;;;;6.73;3.27;;;;;;;;;;5101836;28;20240;-81
2021/12/15 09:08:29;;;;;;;9.77;4.87;;;;;;;;;;5105970;28;20257;-82
2021/12/15 09:11:00;;;;;;;8.67;3.37;;;;;;;;;;5107378;28;20229;-81
2021/12/15 09:13:31;;;;;;;3.37;1.87;;;;;;;;;;5104262;28;20269;-82
2021/12/15 09:16:01;;;;;;;1.80;1.40;;;;;;;;;;5100250;28;20209;-81
2021/12/15 09:18:31;;;;;;;6.57;4.77;;;;;;;;;;5100026;28;20216;-81
2021/12/15 09:21:00;;;;;;;8.17;3.13;;;;;;;;;;5092366;28;20257;-81
2021/12/15 09:23:31;;;;;;;5.27;2.20;;;;;;;;;;5099247;28;20269;-81
2021/12/15 09:26:00;;;;;;;11.87;2.33;;;;;;;;;;5102693;28;20204;-81
2021/12/15 09:28:35;;;;;;;7.10;3.00;;;;;;;;;;5096595;28;20224;-81
2021/12/15 09:31:04;;;;;;;4.63;2.73;;;;;;;;;;5105227;28;20238;-82
2021/12/15 09:33:36;;;;;;;3.20;2.90;;;;;;;;;;5104752;28;20200;-82
2021/12/15 09:36:05;;;;;;;13.33;3.60;;;;;;;;;;5111952;28;20209;-82
2021/12/15 09:38:35;;;;;;;1.97;1.30;;;;;;;;;;5095215;28;20205;-81
2021/12/15 09:41:09;;;;;;;9.03;3.37;;;;;;;;;;5096257;28;20257;-81
2021/12/15 09:43:37;;;;;;;3.03;1.47;;;;;;;;;;5103328;28;20228;-81
2021/12/15 09:46:12;;;;;;;8.77;4.67;;;;;;;;;;5099249;28;20208;-81
2021/12/15 10:02:52;;;;;;;4.70;2.63;;;;;;;;;;5099802;28;20204;-83
2021/12/15 10:11:21;;;;;;;2.70;2.17;;;;;;;;;;5096821;28;20204;-83
2021/12/15 10:19:26;;;;;;;5.03;1.33;;;;;;;;;;5103579;28;20328;-81
2021/12/15 10:21:59;;;;;;;3.43;1.30;;;;;;;;;;5095977;28;20236;-82
2021/12/15 10:24:35;;;;;;;7.70;3.63;;;;;;;;;;5102055;28;20246;-81
2021/12/15 10:27:06;;;;;;;1.87;0.97;;;;;;;;;;5100679;28;20233;-82
2021/12/15 10:29:35;;;;;;;3.13;1.87;;;;;;;;;;5100332;28;20194;-82
2021/12/15 10:32:08;;;;;;;2.80;1.57;;;;;;;;;;5102281;28;20204;-82
2021/12/15 10:34:37;;;;;;;3.80;1.67;;;;;;;;;;5107455;28;20208;-82
2021/12/15 10:37:06;;;;;;;7.27;2.77;;;;;;;;;;5098182;28;20212;-82
2021/12/15 10:39:34;;;;;;;8.33;3.40;;;;;;;;;;5100700;28;20220;-83
2021/12/15 10:42:11;;;;;;;3.00;2.10;;;;;;;;;;5097483;28;20208;-85
2021/12/15 10:44:42;;;;;;;2.80;1.90;;;;;;;;;;5098829;28;20244;-82
2021/12/15 10:47:13;;;;;;;1.73;1.37;;;;;;;;;;5099334;28;20220;-82
2021/12/15 10:49:43;;;;;;;2.17;1.97;;;;;;;;;;5103343;28;20231;-82
2021/12/15 10:52:12;;;;;;;4.13;2.47;;;;;;;;;;5100832;28;20209;-82
2021/12/15 10:54:49;;;;;;;2.10;1.60;;;;;;;;;;5104206;28;20247;-82
2021/12/15 10:57:21;;;;;;;4.23;2.20;;;;;;;;;;5101840;28;20257;-82
2021/12/15 10:59:54;;;;;;;1.73;1.60;;;;;;;;;;5109857;28;20235;-82
2021/12/15 11:02:38;;;;;;;1.90;1.73;;;;;;;;;;5094204;28;20204;-82
2021/12/15 11:05:08;;;;;;;3.13;1.37;;;;;;;;;;5093679;28;20229;-82
2021/12/15 11:07:39;;;;;;;1.37;1.07;;;;;;;;;;5095287;28;20255;-82
2021/12/15 11:10:10;;;;;;;0.90;0.90;;;;;;;;;;5112786;28;20254;-81
2021/12/15 11:12:41;;;;;;;5.03;2.57;;;;;;;;;;5107776;28;20217;-83
2021/12/15 11:15:12;;;;;;;0.73;0.73;;;;;;;;;;5098887;28;20237;-83
2021/12/15 11:17:41;;;;;;;1.70;1.17;;;;;;;;;;5100971;28;20201;-81
2021/12/15 11:20:12;;;;;;;1.50;1.30;;;;;;;;;;5106484;28;20288;-82
2021/12/15 11:22:57;;;;;;;5.70;2.43;;;;;;;;;;5100707;28;20277;-80
2021/12/15 11:25:29;;;;;;;14.53;1.40;;;;;;;;;;5099246;28;20229;-80
2021/12/15 11:28:02;;;;;;;1.17;1.10;;;;;;;;;;5106656;28;20235;-81
2021/12/15 11:30:32;;;;;;;3.50;1.93;;;;;;;;;;5105385;28;20206;-79
2021/12/15 11:33:05;;;;;;;1.43;1.33;;;;;;;;;;5102247;28;20297;-79
2021/12/15 11:35:35;;;;;;;3.63;1.13;;;;;;;;;;5103235;28;20190;-79
2021/12/15 11:38:06;;;;;;;0.70;0.70;;;;;;;;;;5106351;27;20208;-80
2021/12/15 11:40:43;;;;;;;1.97;1.80;;;;;;;;;;5107574;28;20225;-81
2021/12/15 11:43:27;;;;;;;1.40;1.27;;;;;;;;;;5105122;28;20207;-83
2021/12/15 11:45:55;;;;;;;1.13;1.13;;;;;;;;;;5107418;28;20244;-79
2021/12/15 11:48:27;;;;;;;2.20;1.73;;;;;;;;;;5102724;28;20212;-84
2021/12/15 11:50:56;;;;;;;6.23;1.93;;;;;;;;;;5098991;28;20429;-85
2021/12/15 11:53:43;;;;;;;1.95;1.30;;;;;;;;;;5102568;28;20452;-85
2021/12/15 11:56:23;;;;;;;1.30;0.80;;;;;;;;;;5110471;28;20204;-88
2021/12/15 11:59:18;;;;;;;1.67;1.00;;;;;;;;;;5104222;28;20278;-87
2021/12/15 12:02:01;;;;;;;1.20;1.10;;;;;;;;;;5107988;28;20204;-87
2021/12/15 12:04:44;;;;;;;1.40;1.30;;;;;;;;;;5108251;28;20219;-86
2021/12/15 12:07:20;;;;;;;3.03;2.23;;;;;;;;;;5100708;28;20196;-85
2021/12/15 12:09:53;;;;;;;4.50;1.80;;;;;;;;;;5099662;28;20197;-85
2021/12/15 12:12:29;;;;;;;15.23;1.17;;;;;;;;;;5108181;28;20197;-84
2021/12/15 12:15:06;;;;;;;7.20;2.10;;;;;;;;;;5105086;28;20248;-84
2021/12/15 12:17:43;;;;;;;4.27;3.00;;;;;;;;;;5104957;28;20209;-88
2021/12/15 12:20:14;;;;;;;2.07;1.30;;;;;;;;;;5102108;28;20239;-85
2021/12/15 12:22:45;;;;;;;4.30;1.87;;;;;;;;;;5100289;28;20208;-84
2021/12/15 12:25:15;;;;;;;3.53;1.73;;;;;;;;;;5101334;28;20208;-85
2021/12/15 12:27:45;;;;;;;3.23;1.07;;;;;;;;;;5105272;28;20267;-86
2021/12/15 12:30:20;;;;;;;6.13;1.90;;;;;;;;;;5101574;28;20208;-84
2021/12/15 12:32:51;;;;;;;4.37;1.27;;;;;;;;;;5106017;28;20234;-88
2021/12/15 12:35:27;;;;;;;2.73;1.20;;;;;;;;;;5103598;28;20240;-88
2021/12/15 12:37:59;;;;;;;1.90;1.20;;;;;;;;;;5106557;28;20272;-88
2021/12/15 12:40:52;;;;;;;4.60;4.30;;;;;;;;;;5104323;28;20265;-86
2021/12/15 12:43:24;;;;;;;1.30;1.30;;;;;;;;;;5111845;28;20204;-86
2021/12/15 12:46:10;;;;;;;3.40;1.70;;;;;;;;;;5100581;28;20251;-87
2021/12/15 12:49:17;;;;;;;3.00;1.10;;;;;;;;;;5096818;28;20246;-86
2021/12/15 13:00:36;;;;;;;2.47;1.13;;;;;;;;;;5052994;28;20208;-85
2021/12/15 13:03:09;;;;;;;3.57;1.07;;;;;;;;;;5097809;28;20225;-86
2021/12/15 13:05:41;;;;;;;1.53;1.10;;;;;;;;;;5112545;28;20220;-86
2021/12/15 13:08:19;;;;;;;5.33;1.70;;;;;;;;;;5111219;28;20295;-85
2021/12/15 13:11:00;;;;;;;2.63;1.40;;;;;;;;;;5113223;28;20204;-86
2021/12/15 13:13:31;;;;;;;3.10;1.63;;;;;;;;;;5110322;28;20208;-86
2021/12/15 13:16:02;;;;;;;2.10;1.40;;;;;;;;;;5109947;28;20227;-85
2021/12/15 13:18:45;;;;;;;1.77;1.20;;;;;;;;;;5104091;28;20212;-87
2021/12/15 13:21:19;;;;;;;1.43;0.70;;;;;;;;;;5106904;28;20228;-87
2021/12/15 13:23:52;;;;;;;0.63;0.63;;;;;;;;;;5102572;28;20201;-85
2021/12/15 13:29:26;;;;;;;0.77;0.77;;;;;;;;;;5110254;28;20292;-90
2021/12/15 13:31:59;;;;;;;0.80;0.80;;;;;;;;;;5106050;28;20468;-85
2021/12/15 13:34:43;;;;;;;3.13;1.67;;;;;;;;;;5098427;28;20201;-85
2021/12/15 13:37:12;;;;;;;0.93;0.90;;;;;;;;;;5107471;28;20201;-89
2021/12/15 13:39:45;;;;;;;0.60;0.60;;;;;;;;;;5106568;28;20201;-87
2021/12/15 13:42:15;;;;;;;1.63;0.90;;;;;;;;;;5098253;28;20297;-85
2021/12/15 13:44:45;;;;;;;0.90;0.90;;;;;;;;;;5110590;28;20213;-88
2021/12/15 13:47:16;;;;;;;1.33;1.30;;;;;;;;;;5099430;28;20214;-86
2021/12/15 13:49:50;;;;;;;1.10;1.07;;;;;;;;;;5097242;28;20290;-87
2021/12/15 13:52:33;;;;;;;2.17;0.60;;;;;;;;;;5105475;28;20242;-88
2021/12/15 13:55:25;;;;;;;5.13;1.07;;;;;;;;;;5102241;28;20208;-86
2021/12/15 13:58:15;;;;;;;3.40;1.47;;;;;;;;;;5105329;28;20202;-86
2021/12/15 14:01:08;;;;;;;1.03;0.97;;;;;;;;;;5099313;28;20198;-88
2021/12/15 14:03:41;;;;;;;0.60;0.60;;;;;;;;;;5105848;28;20226;-86
2021/12/15 14:06:13;;;;;;;0.60;0.60;;;;;;;;;;5106073;28;20232;-84
2021/12/15 14:08:47;;;;;;;0.43;0.43;;;;;;;;;;5109890;28;20234;-89
2021/12/15 14:11:20;;;;;;;0.70;0.70;;;;;;;;;;5099373;28;20229;-86
2021/12/15 14:14:03;;;;;;;4.10;2.27;;;;;;;;;;5108174;28;20206;-90
2021/12/15 14:16:47;;;;;;;1.37;1.27;;;;;;;;;;5102742;28;20212;-86
2021/12/15 14:19:18;;;;;;;0.97;0.97;;;;;;;;;;5103695;28;20283;-86
2021/12/15 14:21:49;;;;;;;0.67;0.67;;;;;;;;;;5106882;28;20251;-84
2021/12/15 14:24:18;;;;;;;0.80;0.80;;;;;;;;;;5105545;28;20202;-84
2021/12/15 14:26:47;;;;;;;0.73;0.73;;;;;;;;;;5110525;28;20381;-84
2021/12/15 14:29:18;;;;;;;0.73;0.73;;;;;;;;;;5104353;28;20221;-86
2021/12/15 14:31:49;;;;;;;12.73;7.20;;;;;;;;;;5108483;28;20209;-88
2021/12/15 14:34:19;;;;;;;0.73;0.73;;;;;;;;;;5101617;28;20263;-83
2021/12/15 14:36:50;;;;;;;1.80;1.33;;;;;;;;;;5101594;28;20231;-82
2021/12/15 14:39:23;;;;;;;1.33;1.23;;;;;;;;;;5109693;28;20205;-82
2021/12/15 14:41:53;;;;;;;1.50;1.37;;;;;;;;;;5091333;28;20356;-83
2021/12/15 14:44:23;;;;;;;1.50;1.40;;;;;;;;;;5106666;28;20213;-85
2021/12/15 14:46:53;;;;;;;1.43;0.93;;;;;;;;;;5103825;28;20245;-84
2021/12/15 14:49:25;;;;;;;1.00;1.00;;;;;;;;;;5100230;28;20203;-84
2021/12/15 14:52:02;;;;;;;0.53;0.53;;;;;;;;;;5104227;28;20205;-83
2021/12/15 14:54:34;;;;;;;4.63;1.17;;;;;;;;;;5106329;28;20202;-85
2021/12/15 14:57:04;;;;;;;0.70;0.70;;;;;;;;;;5105056;28;20205;-86
2021/12/15 14:59:34;;;;;;;0.70;0.70;;;;;;;;;;5106316;28;20214;-85
2021/12/15 15:02:05;;;;;;;1.00;1.00;;;;;;;;;;5107911;28;20645;-84
2021/12/15 15:04:35;;;;;;;0.57;0.57;;;;;;;;;;5102114;28;20220;-83
2021/12/15 15:07:09;;;;;;;16.83;2.23;;;;;;;;;;5109941;28;20226;-84
2021/12/15 15:09:39;;;;;;;0.63;0.63;;;;;;;;;;5096667;28;20218;-85
2021/12/15 15:12:11;;;;;;;1.80;1.37;;;;;;;;;;5096536;28;20202;-85
2021/12/15 15:14:46;;;;;;;2.40;1.53;;;;;;;;;;5115181;28;20219;-85
2021/12/15 15:17:24;;;;;;;4.50;1.77;;;;;;;;;;5117333;28;20242;-84
2021/12/15 15:19:53;;;;;;;1.03;1.00;;;;;;;;;;5117528;28;20192;-85
2021/12/15 15:22:24;;;;;;;5.80;2.00;;;;;;;;;;5117036;27;20249;-85
2021/12/15 15:24:54;;;;;;;3.87;1.63;;;;;;;;;;5117773;28;20194;-85
2021/12/15 15:27:25;;;;;;;1.50;1.03;;;;;;;;;;5117165;28;20212;-84
2021/12/15 15:29:55;;;;;;;1.17;1.07;;;;;;;;;;5116953;28;20236;-84
2021/12/15 15:32:24;;;;;;;4.53;1.83;;;;;;;;;;5117186;28;20196;-84
2021/12/15 15:34:56;;;;;;;2.97;1.50;;;;;;;;;;5117164;28;20238;-84
2021/12/15 15:37:31;;;;;;;1.67;1.53;;;;;;;;;;5117698;28;20207;-84
2021/12/15 15:40:12;;;;;;;14.83;2.30;;;;;;;;;;5117115;28;20215;-85
2021/12/15 15:42:41;;;;;;;2.10;1.87;;;;;;;;;;5117292;27;20252;-85
2021/12/15 15:45:22;;;;;;;3.53;1.93;;;;;;;;;;5117281;28;20291;-85
2021/12/15 15:47:50;;;;;;;2.13;1.57;;;;;;;;;;5116607;28;20284;-85
2021/12/15 15:50:19;;;;;;;1.57;1.47;;;;;;;;;;5116860;28;20534;-84
2021/12/15 15:52:51;;;;;;;1.00;1.00;;;;;;;;;;5117033;28;20228;-85
2021/12/15 15:55:21;;;;;;;6.23;1.80;;;;;;;;;;5116729;28;20257;-85
2021/12/15 15:57:50;;;;;;;3.40;2.00;;;;;;;;;;5116510;28;20209;-85
2021/12/15 16:00:20;;;;;;;1.13;1.07;;;;;;;;;;5105267;28;20274;-85
2021/12/15 16:02:48;;;;;;;4.77;1.67;;;;;;;;;;5095477;28;20201;-84
2021/12/15 16:05:17;;;;;;;1.80;1.70;;;;;;;;;;5096028;28;20209;-85
2021/12/15 16:07:48;;;;;;;1.17;1.17;;;;;;;;;;5095552;28;20333;-84
2021/12/15 16:10:20;;;;;;;2.47;1.87;;;;;;;;;;5096276;28;20208;-85
2021/12/15 16:12:49;;;;;;;1.77;1.60;;;;;;;;;;5095213;28;20258;-85
2021/12/15 16:15:18;;;;;;;1.77;1.07;;;;;;;;;;5096406;28;20270;-85
2021/12/15 16:17:55;;;;;;;3.60;1.27;;;;;;;;;;5095923;28;20213;-85
2021/12/15 16:20:37;;;;;;;3.50;3.30;;;;;;;;;;5095611;28;20201;-84
2021/12/15 16:23:05;;;;;;;5.30;1.70;;;;;;;;;;5095852;28;20229;-85
2021/12/15 16:25:38;;;;;;;2.40;1.70;;;;;;;;;;5095640;28;20209;-85